sensor_id;sensor_type;location;lat;lon;timestamp;pressure;altitude;pressure_sealevel;temperature;humidity
19114;BME280;9689;51.052;13.772;2023-03-20T00:03:45;100434.03;;;9.58;78.55
19114;BME280;9689;51.052;13.772;2023-03-20T00:08:50;100434.13;;;9.52;79.00
19114;BME280;9689;51.052;13.772;2023-03-20T00:13:51;100440.25;;;9.46;78.20
19114;BME280;9689;51.052;13.772;2023-03-20T00:18:52;100436.78;;;9.49;78.84
19114;BME280;9689;51.052;13.772;2023-03-20T00:23:56;100443.78;;;9.42;78.29
19114;BME280;9689;51.052;13.772;2023-03-20T00:28:57;100441.16;;;9.44;78.24
19114;BME280;9689;51.052;13.772;2023-03-20T00:33:59;100439.28;;;9.56;78.16
19114;BME280;9689;51.052;13.772;2023-03-20T00:39:02;100437.66;;;9.46;77.79
19114;BME280;9689;51.052;13.772;2023-03-20T00:44:19;100434.19;;;9.47;78.03
19114;BME280;9689;51.052;13.772;2023-03-20T00:49:23;100437.66;;;9.48;78.45
19114;BME280;9689;51.052;13.772;2023-03-20T00:54:26;100430.84;;;9.39;78.74
19114;BME280;9689;51.052;13.772;2023-03-20T00:59:30;100443.72;;;9.47;78.38
19114;BME280;9689;51.052;13.772;2023-03-20T01:04:34;100435.97;;;9.42;78.66
19114;BME280;9689;51.052;13.772;2023-03-20T01:09:37;100430.94;;;9.31;79.09
19114;BME280;9689;51.052;13.772;2023-03-20T01:14:38;100438.44;;;9.53;78.80
19114;BME280;9689;51.052;13.772;2023-03-20T01:19:38;100425.50;;;9.48;78.36
19114;BME280;9689;51.052;13.772;2023-03-20T01:24:41;100421.94;;;9.54;78.70
19114;BME280;9689;51.052;13.772;2023-03-20T01:29:41;100425.44;;;9.51;78.75
19114;BME280;9689;51.052;13.772;2023-03-20T01:34:42;100426.38;;;9.47;78.55
19114;BME280;9689;51.052;13.772;2023-03-20T01:39:44;100428.13;;;9.45;78.92
19114;BME280;9689;51.052;13.772;2023-03-20T01:44:45;100425.56;;;9.44;78.46
19114;BME280;9689;51.052;13.772;2023-03-20T01:55:32;100422.19;;;9.35;78.57
19114;BME280;9689;51.052;13.772;2023-03-20T02:00:34;100426.50;;;9.40;78.17
19114;BME280;9689;51.052;13.772;2023-03-20T02:05:39;100425.75;;;9.30;78.47
19114;BME280;9689;51.052;13.772;2023-03-20T02:10:42;100424.00;;;9.30;78.72
19114;BME280;9689;51.052;13.772;2023-03-20T02:15:58;100425.75;;;9.30;78.81
19114;BME280;9689;51.052;13.772;2023-03-20T02:27:07;100426.66;;;9.26;79.07
19114;BME280;9689;51.052;13.772;2023-03-20T02:32:34;100430.00;;;9.34;78.48
19114;BME280;9689;51.052;13.772;2023-03-20T02:37:54;100420.56;;;9.30;78.72
19114;BME280;9689;51.052;13.772;2023-03-20T02:43:05;100424.19;;;9.15;79.73
19114;BME280;9689;51.052;13.772;2023-03-20T02:48:15;100420.53;;;9.31;78.93
19114;BME280;9689;51.052;13.772;2023-03-20T02:53:31;100429.22;;;9.27;79.01
19114;BME280;9689;51.052;13.772;2023-03-20T02:58:38;100431.91;;;9.23;78.90
19114;BME280;9689;51.052;13.772;2023-03-20T03:03:45;100433.59;;;9.25;78.76
19114;BME280;9689;51.052;13.772;2023-03-20T03:08:53;100424.06;;;9.24;79.44
19114;BME280;9689;51.052;13.772;2023-03-20T03:13:56;100423.19;;;9.25;79.28
19114;BME280;9689;51.052;13.772;2023-03-20T03:19:04;100429.22;;;9.27;78.50
19114;BME280;9689;51.052;13.772;2023-03-20T03:24:22;100424.06;;;9.26;79.25
19114;BME280;9689;51.052;13.772;2023-03-20T03:29:39;100416.25;;;9.26;79.26
19114;BME280;9689;51.052;13.772;2023-03-20T03:34:40;100416.31;;;9.23;79.08
19114;BME280;9689;51.052;13.772;2023-03-20T03:39:47;100419.03;;;9.11;79.76
19114;BME280;9689;51.052;13.772;2023-03-20T03:44:58;100412.88;;;9.18;79.47
19114;BME280;9689;51.052;13.772;2023-03-20T03:50:06;100429.38;;;9.15;80.09
19114;BME280;9689;51.052;13.772;2023-03-20T03:55:14;100425.00;;;9.19;79.92
19114;BME280;9689;51.052;13.772;2023-03-20T04:00:39;100423.34;;;9.12;79.77
19114;BME280;9689;51.052;13.772;2023-03-20T04:05:43;100429.44;;;9.12;79.57
19114;BME280;9689;51.052;13.772;2023-03-20T04:10:46;100429.53;;;9.03;80.49
19114;BME280;9689;51.052;13.772;2023-03-20T04:15:47;100421.69;;;9.07;79.43
19114;BME280;9689;51.052;13.772;2023-03-20T04:20:48;100432.88;;;9.14;79.84
19114;BME280;9689;51.052;13.772;2023-03-20T04:25:51;100431.13;;;9.15;79.69
19114;BME280;9689;51.052;13.772;2023-03-20T04:30:54;100440.81;;;9.03;80.39
19114;BME280;9689;51.052;13.772;2023-03-20T04:36:14;100432.88;;;9.11;80.35
19114;BME280;9689;51.052;13.772;2023-03-20T04:41:16;100439.78;;;9.15;79.86
19114;BME280;9689;51.052;13.772;2023-03-20T04:46:25;100436.25;;;9.21;80.13
19114;BME280;9689;51.052;13.772;2023-03-20T04:51:26;100430.28;;;9.11;79.79
19114;BME280;9689;51.052;13.772;2023-03-20T04:56:28;100437.28;;;9.07;80.21
19114;BME280;9689;51.052;13.772;2023-03-20T05:01:42;100446.84;;;9.05;80.89
19114;BME280;9689;51.052;13.772;2023-03-20T05:06:43;100452.00;;;9.09;81.59
19114;BME280;9689;51.052;13.772;2023-03-20T05:11:51;100452.28;;;9.53;82.52
19114;BME280;9689;51.052;13.772;2023-03-20T05:17:20;100458.94;;;9.76;81.23
19114;BME280;9689;51.052;13.772;2023-03-20T05:22:40;100463.66;;;9.48;80.15
19114;BME280;9689;51.052;13.772;2023-03-20T05:28:04;100472.44;;;9.39;79.50
19114;BME280;9689;51.052;13.772;2023-03-20T05:33:20;100472.50;;;9.34;79.53
19114;BME280;9689;51.052;13.772;2023-03-20T05:38:40;100486.41;;;9.32;80.21
19114;BME280;9689;51.052;13.772;2023-03-20T05:44:08;100486.06;;;9.58;79.33
19114;BME280;9689;51.052;13.772;2023-03-20T05:49:17;100488.59;;;9.62;78.96
19114;BME280;9689;51.052;13.772;2023-03-20T05:54:36;100492.81;;;9.71;78.81
19114;BME280;9689;51.052;13.772;2023-03-20T05:59:51;100497.78;;;9.88;78.48
19114;BME280;9689;51.052;13.772;2023-03-20T06:05:16;100495.84;;;10.04;77.25
19114;BME280;9689;51.052;13.772;2023-03-20T06:10:22;100496.44;;;10.21;75.65
19114;BME280;9689;51.052;13.772;2023-03-20T06:15:25;100492.06;;;10.25;75.70
19114;BME280;9689;51.052;13.772;2023-03-20T06:20:34;100505.81;;;10.36;75.11
19114;BME280;9689;51.052;13.772;2023-03-20T06:25:36;100507.13;;;10.61;73.03
19114;BME280;9689;51.052;13.772;2023-03-20T06:30:41;100506.00;;;10.74;72.31
19114;BME280;9689;51.052;13.772;2023-03-20T06:35:47;100515.56;;;10.75;72.39
19114;BME280;9689;51.052;13.772;2023-03-20T06:40:49;100518.00;;;10.86;71.94
19114;BME280;9689;51.052;13.772;2023-03-20T06:45:51;100514.47;;;10.89;71.65
19114;BME280;9689;51.052;13.772;2023-03-20T06:50:54;100511.06;;;10.84;71.70
19114;BME280;9689;51.052;13.772;2023-03-20T06:56:00;100510.03;;;10.92;71.35
19114;BME280;9689;51.052;13.772;2023-03-20T07:01:07;100509.72;;;11.09;70.81
19114;BME280;9689;51.052;13.772;2023-03-20T07:06:09;100506.97;;;11.17;70.47
19114;BME280;9689;51.052;13.772;2023-03-20T07:11:12;100497.34;;;11.20;70.01
19114;BME280;9689;51.052;13.772;2023-03-20T07:16:14;100500.69;;;11.27;69.77
19114;BME280;9689;51.052;13.772;2023-03-20T07:21:18;100505.72;;;11.36;69.63
19114;BME280;9689;51.052;13.772;2023-03-20T07:26:19;100508.19;;;11.44;69.76
19114;BME280;9689;51.052;13.772;2023-03-20T07:31:24;100512.34;;;11.52;69.98
19114;BME280;9689;51.052;13.772;2023-03-20T07:36:34;100510.91;;;11.81;68.14
19114;BME280;9689;51.052;13.772;2023-03-20T07:41:35;100522.81;;;11.94;68.08
19114;BME280;9689;51.052;13.772;2023-03-20T07:46:41;100517.88;;;12.21;68.23
19114;BME280;9689;51.052;13.772;2023-03-20T07:51:43;100518.31;;;12.38;67.92
19114;BME280;9689;51.052;13.772;2023-03-20T07:56:44;100516.75;;;12.66;67.11
19114;BME280;9689;51.052;13.772;2023-03-20T08:01:46;100523.78;;;12.64;67.16
19114;BME280;9689;51.052;13.772;2023-03-20T08:06:49;100536.84;;;12.29;68.49
19114;BME280;9689;51.052;13.772;2023-03-20T08:11:50;100530.19;;;12.14;68.82
19114;BME280;9689;51.052;13.772;2023-03-20T08:16:52;100531.31;;;12.04;68.80
19114;BME280;9689;51.052;13.772;2023-03-20T08:22:12;100527.72;;;12.09;68.87
19114;BME280;9689;51.052;13.772;2023-03-20T08:27:13;100530.41;;;12.05;69.43
19114;BME280;9689;51.052;13.772;2023-03-20T08:32:15;100533.63;;;12.18;68.53
19114;BME280;9689;51.052;13.772;2023-03-20T08:37:16;100534.41;;;12.21;68.63
19114;BME280;9689;51.052;13.772;2023-03-20T08:42:19;100531.88;;;12.18;68.08
19114;BME280;9689;51.052;13.772;2023-03-20T08:47:21;100537.47;;;12.38;67.57
19114;BME280;9689;51.052;13.772;2023-03-20T08:52:26;100541.53;;;12.52;67.22
19114;BME280;9689;51.052;13.772;2023-03-20T08:57:27;100539.38;;;12.67;67.36
19114;BME280;9689;51.052;13.772;2023-03-20T09:02:29;100543.28;;;12.50;67.93
19114;BME280;9689;51.052;13.772;2023-03-20T09:07:29;100542.84;;;12.34;69.14
19114;BME280;9689;51.052;13.772;2023-03-20T09:12:30;100540.78;;;12.47;69.11
19114;BME280;9689;51.052;13.772;2023-03-20T09:17:33;100550.25;;;12.86;66.99
19114;BME280;9689;51.052;13.772;2023-03-20T09:22:34;100543.13;;;12.91;67.58
19114;BME280;9689;51.052;13.772;2023-03-20T09:27:34;100546.31;;;13.02;66.85
19114;BME280;9689;51.052;13.772;2023-03-20T09:32:37;100543.66;;;12.71;67.22
19114;BME280;9689;51.052;13.772;2023-03-20T09:37:38;100546.06;;;13.12;66.59
19114;BME280;9689;51.052;13.772;2023-03-20T09:42:43;100552.66;;;12.94;67.75
19114;BME280;9689;51.052;13.772;2023-03-20T09:47:53;100554.91;;;13.42;65.93
19114;BME280;9689;51.052;13.772;2023-03-20T09:53:02;100558.28;;;13.47;65.39
19114;BME280;9689;51.052;13.772;2023-03-20T09:58:11;100565.50;;;13.37;66.16
19114;BME280;9689;51.052;13.772;2023-03-20T10:03:20;100567.34;;;13.34;66.04
19114;BME280;9689;51.052;13.772;2023-03-20T10:08:25;100562.63;;;13.14;66.35
19114;BME280;9689;51.052;13.772;2023-03-20T10:13:37;100561.81;;;13.75;65.03
19114;BME280;9689;51.052;13.772;2023-03-20T10:18:45;100560.44;;;13.62;65.19
19114;BME280;9689;51.052;13.772;2023-03-20T10:23:55;100562.19;;;13.93;64.81
19114;BME280;9689;51.052;13.772;2023-03-20T10:29:00;100559.94;;;13.79;64.14
19114;BME280;9689;51.052;13.772;2023-03-20T10:34:16;100555.09;;;14.24;63.76
19114;BME280;9689;51.052;13.772;2023-03-20T10:39:38;100550.69;;;13.97;64.27
19114;BME280;9689;51.052;13.772;2023-03-20T10:44:46;100556.91;;;13.94;64.09
19114;BME280;9689;51.052;13.772;2023-03-20T10:49:53;100554.28;;;13.94;64.43
19114;BME280;9689;51.052;13.772;2023-03-20T10:54:58;100547.94;;;14.01;65.00
19114;BME280;9689;51.052;13.772;2023-03-20T10:59:59;100548.13;;;13.95;64.88
19114;BME280;9689;51.052;13.772;2023-03-20T11:05:10;100556.47;;;13.49;66.74
19114;BME280;9689;51.052;13.772;2023-03-20T11:10:19;100559.44;;;13.35;67.28
19114;BME280;9689;51.052;13.772;2023-03-20T11:15:27;100560.75;;;13.51;67.16
19114;BME280;9689;51.052;13.772;2023-03-20T11:20:34;100559.16;;;13.77;65.74
19114;BME280;9689;51.052;13.772;2023-03-20T11:25:38;100553.13;;;14.03;64.78
19114;BME280;9689;51.052;13.772;2023-03-20T11:30:45;100553.09;;;14.04;64.43
19114;BME280;9689;51.052;13.772;2023-03-20T11:36:10;100543.00;;;14.20;64.43
19114;BME280;9689;51.052;13.772;2023-03-20T11:41:17;100535.75;;;14.28;63.82
19114;BME280;9689;51.052;13.772;2023-03-20T11:46:20;100521.84;;;14.26;63.77
19114;BME280;9689;51.052;13.772;2023-03-20T11:51:23;100530.88;;;14.44;63.27
19114;BME280;9689;51.052;13.772;2023-03-20T11:56:26;100528.00;;;14.25;63.36
19114;BME280;9689;51.052;13.772;2023-03-20T12:01:36;100525.69;;;14.14;63.76
19114;BME280;9689;51.052;13.772;2023-03-20T12:06:44;100514.00;;;13.97;64.08
19114;BME280;9689;51.052;13.772;2023-03-20T12:11:49;100507.66;;;13.76;65.01
19114;BME280;9689;51.052;13.772;2023-03-20T12:16:55;100505.84;;;13.78;65.25
19114;BME280;9689;51.052;13.772;2023-03-20T12:22:07;100515.16;;;13.88;64.96
19114;BME280;9689;51.052;13.772;2023-03-20T12:27:19;100509.19;;;13.53;65.18
19114;BME280;9689;51.052;13.772;2023-03-20T12:32:24;100513.56;;;13.53;65.78
19114;BME280;9689;51.052;13.772;2023-03-20T12:37:27;100506.50;;;13.25;66.28
19114;BME280;9689;51.052;13.772;2023-03-20T12:42:38;100501.59;;;13.13;67.96
19114;BME280;9689;51.052;13.772;2023-03-20T12:47:54;100501.81;;;13.37;66.87
19114;BME280;9689;51.052;13.772;2023-03-20T12:53:14;100497.44;;;13.37;66.52
19114;BME280;9689;51.052;13.772;2023-03-20T12:58:24;100498.44;;;13.33;66.55
19114;BME280;9689;51.052;13.772;2023-03-20T13:03:48;100492.06;;;13.71;65.63
19114;BME280;9689;51.052;13.772;2023-03-20T13:09:30;100484.72;;;14.38;63.80
19114;BME280;9689;51.052;13.772;2023-03-20T13:14:36;100486.59;;;14.07;63.61
19114;BME280;9689;51.052;13.772;2023-03-20T13:19:47;100481.19;;;13.85;64.70
19114;BME280;9689;51.052;13.772;2023-03-20T13:24:59;100476.59;;;13.64;64.92
19114;BME280;9689;51.052;13.772;2023-03-20T13:30:07;100469.97;;;13.81;64.78
19114;BME280;9689;51.052;13.772;2023-03-20T13:35:23;100464.19;;;13.98;64.05
19114;BME280;9689;51.052;13.772;2023-03-20T13:40:29;100452.28;;;13.88;64.33
19114;BME280;9689;51.052;13.772;2023-03-20T13:45:34;100457.09;;;13.74;64.92
19114;BME280;9689;51.052;13.772;2023-03-20T13:50:41;100448.25;;;13.48;66.09
19114;BME280;9689;51.052;13.772;2023-03-20T13:55:50;100450.19;;;13.42;66.83
19114;BME280;9689;51.052;13.772;2023-03-20T14:00:55;100454.97;;;13.27;66.65
19114;BME280;9689;51.052;13.772;2023-03-20T14:06:17;100456.63;;;12.99;67.78
19114;BME280;9689;51.052;13.772;2023-03-20T14:11:54;100460.25;;;12.93;68.41
19114;BME280;9689;51.052;13.772;2023-03-20T14:17:00;100465.84;;;12.80;69.12
19114;BME280;9689;51.052;13.772;2023-03-20T14:22:02;100457.91;;;12.83;69.38
19114;BME280;9689;51.052;13.772;2023-03-20T14:27:04;100453.88;;;12.71;69.66
19114;BME280;9689;51.052;13.772;2023-03-20T14:32:31;100462.03;;;12.59;69.98
19114;BME280;9689;51.052;13.772;2023-03-20T14:37:37;100465.28;;;12.34;71.12
19114;BME280;9689;51.052;13.772;2023-03-20T14:42:53;100463.00;;;12.21;71.61
19114;BME280;9689;51.052;13.772;2023-03-20T14:48:00;100462.84;;;11.91;74.61
19114;BME280;9689;51.052;13.772;2023-03-20T14:53:12;100461.66;;;11.64;74.87
19114;BME280;9689;51.052;13.772;2023-03-20T14:58:47;100459.84;;;11.68;76.00
19114;BME280;9689;51.052;13.772;2023-03-20T15:03:51;100454.03;;;11.53;76.18
19114;BME280;9689;51.052;13.772;2023-03-20T15:08:55;100462.78;;;11.52;76.11
19114;BME280;9689;51.052;13.772;2023-03-20T15:13:59;100473.34;;;11.46;77.47
19114;BME280;9689;51.052;13.772;2023-03-20T15:19:04;100483.09;;;10.92;81.34
19114;BME280;9689;51.052;13.772;2023-03-20T15:24:18;100481.06;;;10.61;83.56
19114;BME280;9689;51.052;13.772;2023-03-20T15:29:20;100480.53;;;10.41;86.08
19114;BME280;9689;51.052;13.772;2023-03-20T15:34:24;100476.22;;;10.38;86.20
19114;BME280;9689;51.052;13.772;2023-03-20T15:39:27;100476.16;;;10.43;87.52
19114;BME280;9689;51.052;13.772;2023-03-20T15:44:35;100477.00;;;10.45;87.35
19114;BME280;9689;51.052;13.772;2023-03-20T15:49:37;100467.53;;;10.39;88.04
19114;BME280;9689;51.052;13.772;2023-03-20T15:54:40;100461.56;;;10.33;88.09
19114;BME280;9689;51.052;13.772;2023-03-20T15:59:43;100470.16;;;10.38;88.25
19114;BME280;9689;51.052;13.772;2023-03-20T16:04:46;100478.78;;;10.41;87.58
19114;BME280;9689;51.052;13.772;2023-03-20T16:09:48;100471.97;;;10.33;88.41
19114;BME280;9689;51.052;13.772;2023-03-20T16:14:52;100467.69;;;10.30;87.02
19114;BME280;9689;51.052;13.772;2023-03-20T16:19:53;100472.91;;;10.29;87.74
19114;BME280;9689;51.052;13.772;2023-03-20T16:24:56;100475.59;;;10.21;86.41
19114;BME280;9689;51.052;13.772;2023-03-20T16:30:04;100473.00;;;10.21;86.90
19114;BME280;9689;51.052;13.772;2023-03-20T16:35:11;100481.53;;;10.32;87.39
19114;BME280;9689;51.052;13.772;2023-03-20T16:40:19;100477.94;;;10.39;87.88
19114;BME280;9689;51.052;13.772;2023-03-20T16:45:27;100477.97;;;10.38;88.26
19114;BME280;9689;51.052;13.772;2023-03-20T16:50:33;100470.31;;;10.29;88.37
19114;BME280;9689;51.052;13.772;2023-03-20T16:55:36;100472.88;;;10.30;88.27
19114;BME280;9689;51.052;13.772;2023-03-20T17:00:46;100478.94;;;10.34;88.11
19114;BME280;9689;51.052;13.772;2023-03-20T17:05:53;100479.69;;;10.39;88.77
19114;BME280;9689;51.052;13.772;2023-03-20T17:10:57;100484.13;;;10.32;88.73
19114;BME280;9689;51.052;13.772;2023-03-20T17:16:00;100470.38;;;10.26;88.04
19114;BME280;9689;51.052;13.772;2023-03-20T17:21:01;100476.38;;;10.29;88.08
19114;BME280;9689;51.052;13.772;2023-03-20T17:26:02;100474.72;;;10.25;88.42
19114;BME280;9689;51.052;13.772;2023-03-20T17:31:04;100475.56;;;10.27;88.60
19114;BME280;9689;51.052;13.772;2023-03-20T17:36:09;100472.94;;;10.27;88.91
19114;BME280;9689;51.052;13.772;2023-03-20T17:41:15;100473.72;;;10.34;88.66
19114;BME280;9689;51.052;13.772;2023-03-20T17:46:19;100475.59;;;10.26;88.87
19114;BME280;9689;51.052;13.772;2023-03-20T17:51:19;100476.41;;;10.28;88.72
19114;BME280;9689;51.052;13.772;2023-03-20T17:56:21;100466.06;;;10.23;89.54
19114;BME280;9689;51.052;13.772;2023-03-20T18:01:23;100468.69;;;10.20;88.98
19114;BME280;9689;51.052;13.772;2023-03-20T18:06:26;100471.34;;;10.15;89.62
19114;BME280;9689;51.052;13.772;2023-03-20T18:11:28;100473.88;;;10.22;88.62
19114;BME280;9689;51.052;13.772;2023-03-20T18:16:31;100476.53;;;10.18;89.16
19114;BME280;9689;51.052;13.772;2023-03-20T18:21:31;100479.28;;;10.09;88.93
19114;BME280;9689;51.052;13.772;2023-03-20T18:26:32;100480.16;;;10.07;88.91
19114;BME280;9689;51.052;13.772;2023-03-20T18:31:34;100471.59;;;9.99;87.44
19114;BME280;9689;51.052;13.772;2023-03-20T18:36:36;100469.94;;;9.95;87.22
19114;BME280;9689;51.052;13.772;2023-03-20T18:41:37;100472.50;;;9.98;85.89
19114;BME280;9689;51.052;13.772;2023-03-20T18:46:39;100474.34;;;9.91;84.04
19114;BME280;9689;51.052;13.772;2023-03-20T18:51:40;100476.09;;;9.90;83.70
19114;BME280;9689;51.052;13.772;2023-03-20T18:56:41;100486.41;;;9.95;83.20
19114;BME280;9689;51.052;13.772;2023-03-20T19:01:44;100488.06;;;10.02;83.64
19114;BME280;9689;51.052;13.772;2023-03-20T19:06:45;100496.75;;;10.01;83.37
19114;BME280;9689;51.052;13.772;2023-03-20T19:11:47;100488.97;;;9.98;83.83
19114;BME280;9689;51.052;13.772;2023-03-20T19:16:49;100489.72;;;10.06;84.22
19114;BME280;9689;51.052;13.772;2023-03-20T19:21:50;100480.19;;;10.05;83.52
19114;BME280;9689;51.052;13.772;2023-03-20T19:26:51;100475.88;;;10.04;84.19
19114;BME280;9689;51.052;13.772;2023-03-20T19:31:56;100481.03;;;10.09;83.40
19114;BME280;9689;51.052;13.772;2023-03-20T19:36:58;100476.03;;;9.94;83.90
19114;BME280;9689;51.052;13.772;2023-03-20T19:41:59;100462.91;;;10.01;84.25
19114;BME280;9689;51.052;13.772;2023-03-20T19:47:21;100470.75;;;10.00;84.31
19114;BME280;9689;51.052;13.772;2023-03-20T19:52:27;100469.00;;;10.00;84.91
19114;BME280;9689;51.052;13.772;2023-03-20T19:57:31;100471.56;;;10.02;84.91
19114;BME280;9689;51.052;13.772;2023-03-20T20:02:33;100468.31;;;9.87;85.88
19114;BME280;9689;51.052;13.772;2023-03-20T20:07:34;100463.50;;;9.60;86.27
19114;BME280;9689;51.052;13.772;2023-03-20T20:12:54;100454.22;;;9.41;87.12
19114;BME280;9689;51.052;13.772;2023-03-20T20:17:57;100460.31;;;9.37;88.12
19114;BME280;9689;51.052;13.772;2023-03-20T20:22:58;100466.63;;;9.17;87.84
19114;BME280;9689;51.052;13.772;2023-03-20T20:27:58;100458.06;;;9.07;88.14
19114;BME280;9689;51.052;13.772;2023-03-20T20:33:01;100454.53;;;9.12;87.81
19114;BME280;9689;51.052;13.772;2023-03-20T20:38:03;100455.53;;;9.01;87.86
19114;BME280;9689;51.052;13.772;2023-03-20T20:43:24;100452.03;;;9.07;88.35
19114;BME280;9689;51.052;13.772;2023-03-20T20:48:46;100452.88;;;9.07;88.59
19114;BME280;9689;51.052;13.772;2023-03-20T20:53:47;100453.66;;;9.14;88.42
19114;BME280;9689;51.052;13.772;2023-03-20T20:58:48;100451.06;;;9.16;87.81
19114;BME280;9689;51.052;13.772;2023-03-20T21:03:50;100457.09;;;9.16;88.11
19114;BME280;9689;51.052;13.772;2023-03-20T21:08:51;100457.94;;;9.18;88.41
19114;BME280;9689;51.052;13.772;2023-03-20T21:13:52;100459.63;;;9.21;88.12
19114;BME280;9689;51.052;13.772;2023-03-20T21:18:54;100458.00;;;9.14;88.44
19114;BME280;9689;51.052;13.772;2023-03-20T21:23:55;100463.09;;;9.23;87.87
19114;BME280;9689;51.052;13.772;2023-03-20T21:28:55;100470.03;;;9.21;88.05
19114;BME280;9689;51.052;13.772;2023-03-20T21:33:58;100466.56;;;9.20;88.77
19114;BME280;9689;51.052;13.772;2023-03-20T21:38:59;100467.34;;;9.30;88.08
19114;BME280;9689;51.052;13.772;2023-03-20T21:44:07;100467.31;;;9.33;88.03
19114;BME280;9689;51.052;13.772;2023-03-20T21:49:17;100459.56;;;9.28;87.77
19114;BME280;9689;51.052;13.772;2023-03-20T21:54:37;100467.25;;;9.36;87.51
19114;BME280;9689;51.052;13.772;2023-03-20T21:59:58;100469.94;;;9.28;87.78
19114;BME280;9689;51.052;13.772;2023-03-20T22:05:20;100477.75;;;9.31;87.87
19114;BME280;9689;51.052;13.772;2023-03-20T22:10:41;100472.53;;;9.31;87.72
19114;BME280;9689;51.052;13.772;2023-03-20T22:16:07;100482.03;;;9.34;87.72
19114;BME280;9689;51.052;13.772;2023-03-20T22:21:30;100482.97;;;9.30;88.18
19114;BME280;9689;51.052;13.772;2023-03-20T22:26:51;100492.44;;;9.34;86.67
19114;BME280;9689;51.052;13.772;2023-03-20T22:32:12;100493.28;;;9.36;87.26
19114;BME280;9689;51.052;13.772;2023-03-20T22:37:34;100493.28;;;9.34;87.77
19114;BME280;9689;51.052;13.772;2023-03-20T22:42:54;100498.53;;;9.33;87.14
19114;BME280;9689;51.052;13.772;2023-03-20T22:48:15;100499.44;;;9.27;87.45
19114;BME280;9689;51.052;13.772;2023-03-20T22:53:18;100494.22;;;9.29;87.83
19114;BME280;9689;51.052;13.772;2023-03-20T22:58:19;100483.88;;;9.24;88.03
19114;BME280;9689;51.052;13.772;2023-03-20T23:03:20;100480.44;;;9.22;88.95
19114;BME280;9689;51.052;13.772;2023-03-20T23:08:40;100476.91;;;9.26;89.07
19114;BME280;9689;51.052;13.772;2023-03-20T23:13:53;100474.41;;;9.19;89.39
19114;BME280;9689;51.052;13.772;2023-03-20T23:18:54;100474.38;;;9.20;89.28
19114;BME280;9689;51.052;13.772;2023-03-20T23:23:57;100476.97;;;9.23;89.90
19114;BME280;9689;51.052;13.772;2023-03-20T23:28:58;100482.16;;;9.25;89.78
19114;BME280;9689;51.052;13.772;2023-03-20T23:34:00;100477.06;;;9.14;89.79
19114;BME280;9689;51.052;13.772;2023-03-20T23:39:02;100477.88;;;9.19;87.71
19114;BME280;9689;51.052;13.772;2023-03-20T23:44:03;100476.22;;;9.11;87.18
19114;BME280;9689;51.052;13.772;2023-03-20T23:49:04;100479.72;;;9.10;87.16
19114;BME280;9689;51.052;13.772;2023-03-20T23:54:06;100471.91;;;9.10;86.67
19114;BME280;9689;51.052;13.772;2023-03-20T23:59:07;100461.50;;;9.11;86.85
